createdAt,value
2022-10-22T00:00:27.657Z,9.900000
2022-10-22T00:05:21.738Z,9.987500
2022-10-22T00:10:27.614Z,10.000000
2022-10-22T00:15:28.054Z,10.100000
2022-10-22T00:20:19.163Z,10.100000
2022-10-22T00:25:22.309Z,10.100000
2022-10-22T00:30:27.577Z,10.100000
2022-10-22T00:35:28.510Z,10.177778
2022-10-22T00:40:19.499Z,10.200000
2022-10-22T00:45:22.926Z,10.181818
2022-10-22T00:50:27.503Z,10.060000
2022-10-22T00:55:28.954Z,9.922222
2022-10-22T01:00:20.037Z,9.900000
2022-10-22T01:05:23.118Z,9.900000
2022-10-22T01:10:27.560Z,9.900000
2022-10-22T01:15:29.366Z,9.900000
2022-10-22T01:20:20.750Z,9.983333
2022-10-22T01:25:23.840Z,10.045455
2022-10-22T01:30:27.556Z,10.058333
2022-10-22T01:35:30.271Z,9.900000
2022-10-22T01:40:21.177Z,9.709091
2022-10-22T01:45:24.274Z,9.600000
2022-10-22T01:50:27.378Z,9.700000
2022-10-22T01:55:30.615Z,9.890000
2022-10-22T02:00:21.503Z,10.036364
2022-10-22T02:05:24.652Z,10.100000
2022-10-22T02:10:28.047Z,10.141667
2022-10-22T02:15:18.821Z,10.185714
2022-10-22T02:20:22.352Z,10.100000
2022-10-22T02:25:28.090Z,10.100000
2022-10-22T02:30:28.579Z,10.100000
2022-10-22T02:35:19.634Z,10.058333
2022-10-22T02:40:22.914Z,10.000000
2022-10-22T02:45:28.445Z,10.000000
2022-10-22T02:50:29.026Z,9.933333
2022-10-22T02:55:19.996Z,9.900000
2022-10-22T03:00:23.252Z,9.900000
2022-10-22T03:05:28.554Z,9.900000
2022-10-22T03:10:29.455Z,9.900000
2022-10-22T03:15:20.537Z,9.900000
2022-10-22T03:20:24.070Z,9.820000
2022-10-22T03:25:28.457Z,9.800000
2022-10-22T03:30:30.391Z,9.800000
2022-10-22T03:35:21.271Z,9.881818
2022-10-22T03:40:24.533Z,9.900000
2022-10-22T03:45:29.380Z,9.954545
2022-10-22T03:50:30.737Z,10.018182
2022-10-22T03:55:21.737Z,10.116667
2022-10-22T04:00:24.889Z,10.275000
2022-10-22T04:05:28.918Z,10.430000
2022-10-22T04:10:19.067Z,10.560000
2022-10-22T04:15:22.719Z,10.660000
2022-10-22T04:20:25.873Z,10.775000
2022-10-22T04:25:41.127Z,10.883333
2022-10-22T04:30:19.899Z,10.900000
2022-10-22T04:35:23.098Z,10.900000
2022-10-22T04:40:26.214Z,10.836364
2022-10-22T04:45:41.462Z,10.800000
2022-10-22T04:50:20.349Z,10.730000
2022-10-22T04:55:23.472Z,10.808333
2022-10-22T05:00:29.356Z,10.900000
2022-10-22T05:05:29.755Z,10.987500
2022-10-22T05:10:20.815Z,11.122222
2022-10-22T05:15:23.972Z,11.350000
2022-10-22T05:20:27.420Z,11.663636
2022-10-22T05:25:30.536Z,12.120000
2022-10-22T05:30:21.574Z,12.450000
2022-10-22T05:35:24.688Z,12.727273
2022-10-22T05:40:31.037Z,12.936364
2022-10-22T05:45:18.774Z,13.077778
2022-10-22T05:50:22.311Z,13.200000
2022-10-22T05:55:25.156Z,13.300000
2022-10-22T06:00:29.507Z,13.400000
2022-10-22T06:05:19.286Z,13.433333
2022-10-22T06:10:22.328Z,13.455556
2022-10-22T06:15:25.550Z,13.400000
2022-10-22T06:20:28.738Z,13.333333
2022-10-22T06:25:19.805Z,13.300000
2022-10-22T06:30:22.848Z,13.233333
2022-10-22T06:35:26.064Z,13.200000
2022-10-22T06:40:29.286Z,13.230000
2022-10-22T06:45:20.649Z,13.320000
2022-10-22T06:50:23.674Z,13.400000
2022-10-22T06:55:29.350Z,13.400000
2022-10-22T07:00:29.521Z,13.400000
2022-10-22T07:05:20.537Z,13.380000
2022-10-22T07:10:26.033Z,13.300000
2022-10-22T07:15:29.342Z,13.390000
2022-10-22T07:20:30.060Z,13.436364
2022-10-22T07:25:21.057Z,13.500000
2022-10-22T07:30:24.248Z,13.500000
2022-10-22T07:35:27.408Z,13.540000
2022-10-22T07:40:30.436Z,13.500000
2022-10-22T07:45:21.910Z,13.500000
2022-10-22T07:50:24.568Z,13.500000
2022-10-22T07:55:29.347Z,13.558333
2022-10-22T08:00:30.983Z,13.644444
2022-10-22T08:05:21.926Z,13.733333
2022-10-22T08:10:25.081Z,13.875000
2022-10-22T08:15:29.289Z,13.977778
2022-10-22T08:20:19.497Z,14.075000
2022-10-22T08:25:22.572Z,14.100000
2022-10-22T08:30:25.700Z,14.063636
2022-10-22T08:35:29.394Z,14.000000
2022-10-22T08:40:19.880Z,13.960000
2022-10-22T08:45:23.169Z,13.930000
2022-10-22T08:50:26.121Z,14.040000
2022-10-22T08:55:32.685Z,14.200000
2022-10-22T09:00:21.324Z,14.390000
2022-10-22T09:05:23.345Z,14.336364
2022-10-22T09:10:26.553Z,14.300000
2022-10-22T09:15:29.691Z,14.363636
2022-10-22T09:20:21.149Z,14.480000
2022-10-22T09:25:24.212Z,14.572727
2022-10-22T09:30:27.337Z,14.690000
2022-10-22T09:35:30.570Z,14.677778
2022-10-22T09:40:21.469Z,14.600000
2022-10-22T09:45:24.698Z,14.610000
2022-10-22T09:50:29.713Z,14.681818
2022-10-22T09:55:31.079Z,14.590000
2022-10-22T10:00:21.957Z,14.416667
2022-10-22T10:05:25.016Z,14.200000
2022-10-22T10:10:29.505Z,14.100000
2022-10-22T10:15:19.988Z,14.020000
2022-10-22T10:20:22.854Z,14.087500
2022-10-22T10:25:25.893Z,14.100000
2022-10-22T10:30:29.383Z,14.127273
2022-10-22T10:35:20.063Z,14.200000
2022-10-22T10:40:23.240Z,14.200000
2022-10-22T10:45:29.325Z,14.170000
2022-10-22T10:50:29.799Z,14.100000
2022-10-22T10:55:20.492Z,14.036364
2022-10-22T11:00:23.598Z,14.000000
2022-10-22T11:05:29.412Z,14.000000
2022-10-22T11:10:30.118Z,14.000000
2022-10-22T11:15:20.809Z,14.063636
2022-10-22T11:20:24.228Z,14.209091
2022-10-22T11:25:29.341Z,14.300000
2022-10-22T11:30:31.129Z,14.300000
2022-10-22T11:35:25.715Z,14.300000
2022-10-22T11:40:24.533Z,14.300000
2022-10-22T11:45:29.309Z,14.325000
2022-10-22T11:50:30.881Z,14.400000
2022-10-22T11:55:22.259Z,14.490909
2022-10-22T12:00:25.053Z,14.500000
2022-10-22T12:05:29.403Z,14.588889
2022-10-22T12:10:19.058Z,14.600000
2022-10-22T12:15:22.254Z,14.600000
2022-10-22T12:20:25.561Z,14.663636
2022-10-22T12:25:35.504Z,14.700000
2022-10-22T12:30:19.668Z,14.700000
2022-10-22T12:35:22.735Z,14.660000
2022-10-22T12:40:25.830Z,14.600000
2022-10-22T12:45:29.315Z,14.641667
2022-10-22T12:50:20.015Z,14.737500
2022-10-22T12:55:23.588Z,14.800000
2022-10-22T13:00:26.415Z,14.800000
2022-10-22T13:05:41.562Z,14.745455
2022-10-22T13:10:20.408Z,14.700000
2022-10-22T13:15:23.496Z,14.700000
2022-10-22T13:20:29.301Z,14.700000
2022-10-22T13:25:30.258Z,14.700000
2022-10-22T13:30:21.193Z,14.700000
2022-10-22T13:35:24.386Z,14.700000
2022-10-22T13:40:30.274Z,14.781818
2022-10-22T13:45:30.843Z,14.800000
2022-10-22T13:50:21.638Z,14.800000
2022-10-22T13:55:25.183Z,14.800000
2022-10-22T14:00:29.787Z,14.800000
2022-10-22T14:05:19.126Z,14.800000
2022-10-22T14:10:21.979Z,14.800000
2022-10-22T14:15:25.182Z,14.800000
2022-10-22T14:20:29.814Z,14.800000
2022-10-22T14:25:19.657Z,14.800000
2022-10-22T14:30:22.849Z,14.800000
2022-10-22T14:35:25.941Z,14.800000
2022-10-22T14:40:29.783Z,14.800000
2022-10-22T14:45:20.113Z,14.800000
2022-10-22T14:50:23.219Z,14.800000
2022-10-22T14:55:26.243Z,14.854545
2022-10-22T15:00:29.825Z,14.900000
2022-10-22T15:05:20.421Z,14.900000
2022-10-22T15:10:24.693Z,14.900000
2022-10-22T15:15:31.551Z,14.900000
2022-10-22T15:20:30.219Z,14.900000
2022-10-22T15:25:21.346Z,14.900000
2022-10-22T15:30:24.425Z,14.875000
2022-10-22T15:35:29.836Z,14.800000
2022-10-22T15:40:30.541Z,14.800000
2022-10-22T15:45:21.641Z,14.854545
2022-10-22T15:50:24.711Z,14.900000
2022-10-22T15:55:30.234Z,14.900000
2022-10-22T16:00:20.161Z,14.900000
2022-10-22T16:05:21.981Z,14.900000
2022-10-22T16:10:25.200Z,14.900000
2022-10-22T16:15:29.779Z,14.900000
2022-10-22T16:20:19.740Z,14.900000
2022-10-22T16:25:22.893Z,14.900000
2022-10-22T16:30:26.045Z,14.900000
2022-10-22T16:35:29.773Z,14.900000
2022-10-22T16:40:22.810Z,14.900000
2022-10-22T16:45:23.329Z,14.900000
2022-10-22T16:50:26.368Z,14.940000
2022-10-22T16:55:30.322Z,15.000000
2022-10-22T17:00:20.548Z,15.066667
2022-10-22T17:05:23.768Z,15.100000
2022-10-22T17:10:26.872Z,15.100000
2022-10-22T17:15:30.721Z,15.180000
2022-10-22T17:20:21.319Z,15.200000
2022-10-22T17:25:24.333Z,15.200000
2022-10-22T17:30:29.919Z,15.240000
2022-10-22T17:35:30.657Z,15.300000
2022-10-22T17:40:21.894Z,15.300000
2022-10-22T17:45:24.836Z,15.300000
2022-10-22T17:50:29.866Z,15.300000
2022-10-22T17:55:18.989Z,15.300000
2022-10-22T18:00:22.535Z,15.300000
2022-10-22T18:05:25.125Z,15.300000
2022-10-22T18:10:29.831Z,15.300000
2022-10-22T18:15:19.322Z,15.300000
2022-10-22T18:20:22.832Z,15.300000
2022-10-22T18:25:25.984Z,15.383333
2022-10-22T18:30:29.880Z,15.400000
2022-10-22T18:35:20.041Z,15.400000
2022-10-22T18:40:23.269Z,15.400000
2022-10-22T18:45:26.304Z,15.310000
2022-10-22T18:50:29.960Z,15.300000
2022-10-22T18:55:20.518Z,15.300000
2022-10-22T19:00:24.008Z,15.320000
2022-10-22T19:05:26.754Z,15.400000
2022-10-22T19:10:29.953Z,15.460000
2022-10-22T19:15:20.925Z,15.500000
2022-10-22T19:20:24.326Z,15.508333
2022-10-22T19:25:27.464Z,15.600000
2022-10-22T19:30:30.687Z,15.600000
2022-10-22T19:35:21.569Z,15.600000
2022-10-22T19:40:24.672Z,15.636364
2022-10-22T19:45:27.900Z,15.700000
2022-10-22T19:50:19.040Z,15.766667
2022-10-22T19:55:22.044Z,15.800000
2022-10-22T20:00:25.560Z,15.800000
2022-10-22T20:05:29.790Z,15.800000
2022-10-22T20:10:19.380Z,15.800000
2022-10-22T20:15:22.368Z,15.800000
2022-10-22T20:20:26.731Z,15.800000
2022-10-22T20:25:29.882Z,15.800000
2022-10-22T20:30:20.172Z,15.800000
2022-10-22T20:35:23.252Z,15.800000
2022-10-22T20:40:26.316Z,15.800000
2022-10-22T20:45:29.877Z,15.766667
2022-10-22T20:50:20.533Z,15.700000
2022-10-22T20:55:24.142Z,15.700000
2022-10-22T21:00:26.765Z,15.700000
2022-10-22T21:05:29.983Z,15.650000
2022-10-22T21:10:21.103Z,15.550000
2022-10-22T21:15:24.152Z,15.409091
2022-10-22T21:20:29.852Z,15.263636
2022-10-22T21:25:30.637Z,15.200000
2022-10-22T21:30:21.704Z,15.200000
2022-10-22T21:35:26.007Z,15.200000
2022-10-22T21:40:30.292Z,15.200000
2022-10-22T21:45:22.337Z,15.200000
2022-10-22T21:50:22.094Z,15.200000
2022-10-22T21:55:25.095Z,15.230000
2022-10-22T22:00:30.626Z,15.300000
2022-10-22T22:05:19.253Z,15.400000
2022-10-22T22:10:22.459Z,15.400000
2022-10-22T22:15:25.640Z,15.400000
2022-10-22T22:20:30.204Z,15.300000
2022-10-22T22:25:19.877Z,15.160000
2022-10-22T22:30:22.962Z,15.060000
2022-10-22T22:35:26.094Z,14.954545
2022-10-22T22:40:33.729Z,14.842857
2022-10-22T22:45:20.208Z,14.800000
2022-10-22T22:50:23.444Z,14.716667
2022-10-22T22:55:26.530Z,14.610000
2022-10-22T23:00:30.716Z,14.409091
2022-10-22T23:05:20.649Z,14.110000
2022-10-22T23:10:23.911Z,13.900000
2022-10-22T23:15:26.851Z,13.737500
2022-10-22T23:20:30.771Z,13.600000
2022-10-22T23:25:21.404Z,13.670000
2022-10-22T23:30:24.474Z,13.900000
2022-10-22T23:35:19.241Z,14.209091
2022-10-22T23:40:19.205Z,14.400000
2022-10-22T23:45:22.008Z,14.246154
2022-10-22T23:50:19.122Z,14.050000
2022-10-22T23:55:19.148Z,14.000000
